• Join FlightAware (Why Join?)
  • Login
  • US Flag 
03:01PM EDT


 

Airport Tracker/Info


-or-


 

Live Flight TrackerFlight Track Log ✈ TRS310 ✈ 16-Jun-2013 ✈ KGRR - KMCO

Flight Track Log - Related Links

Times and Time Zones

All times are in EDT time to prevent confusion due to time zone crossing. See the TRS310 flight status page for this flight to view local times or setup timezone preferences in your user account.

Time Position Orientation Groundspeed Altitude Reporting Facility
EDT Latitude Longitude Course Direction KTS MPH feet Rate Location/Type
12:07PM 42.8689 -85.5956 168° South 190 219 2,700  Level Chicago Center
12:08PM 42.8219 -85.6478 219° Southwest 246 283 4,000 1,620 Climbing Chicago Center
12:09PM 42.7433 -85.6331 172° South 286 329 6,100 2,400 Climbing Chicago Center
12:10PM 42.6461 -85.6061 168° South 296 341 9,000 2,220 Climbing Chicago Center
12:11PM 42.5614 -85.5858 170° South 305 351 10,800 1,440 Climbing Chicago Center
12:12PM 42.4286 -85.3632 168° South  Level Estimated
12:12PM 42.4656 -85.5617 169° South 342 394 12,000  Level Chicago Center
12:13PM 42.3600 -85.5319 168° South 378 435 13,700 1,740 Climbing Chicago Center
12:14PM 42.2494 -85.5058 170° South 400 460 15,600 1,860 Climbing Chicago Center
12:15PM 42.1367 -85.4772 169° South 410 472 17,600 2,220 Climbing Chicago Center
12:16PM 41.9986 -85.4431 170° South 419 482 20,300 2,100 Climbing Chicago Center
12:17PM 41.8908 -85.4156 169° South 431 496 22,000 1,680 Climbing Chicago Center
12:18PM 41.7689 -85.3839 169° South 444 511 23,800 1,740 Climbing Chicago Center
12:19PM 41.6314 -85.3506 170° South 458 527 25,600 1,500 Climbing Chicago Center
12:20PM 41.5042 -85.3006 164° South 491 565 26,900 1,380 Climbing Chicago Center
12:21PM 41.3769 -85.2342 159° South 498 573 28,500 1,920 Climbing Chicago Center
12:22PM 41.2297 -85.1522 157° South 482 555 31,000 1,200 Climbing Chicago Center
12:23PM 41.1056 -85.1056 164° South 473 544 31,000  Level Chicago Center
12:24PM 40.9786 -85.0983 178° South 459 528 31,000  Level Chicago Center
12:25PM 40.8517 -85.0931 178° South 458 527 31,000  Level Chicago Center
12:26PM 40.7250 -85.0900 179° South 456 525 31,000  Level Chicago Center
12:27PM 40.5839 -85.0892 180° South 449 517 31,000  Level Chicago Center
12:28PM 40.5094 -85.0872 179° South 446 513 31,000  Level Indianapolis Center
12:29PM 40.3831 -85.0836 179° South 451 519 31,000  Level Indianapolis Center
12:30PM 40.2589 -85.0803 179° South 447 514 31,000  Level Indianapolis Center
12:31PM 40.1333 -85.0783 179° South 449 517 31,000  Level Indianapolis Center
12:32PM 40.0081 -85.0753 179° South 449 517 31,000  Level Indianapolis Center
12:33PM 39.8831 -85.0719 179° South 448 516 31,000  Level Indianapolis Center
12:34PM 39.7572 -85.0683 179° South 449 517 31,000  Level Indianapolis Center
12:35PM 39.6339 -85.0664 179° South 444 511 31,000  Level Indianapolis Center
12:36PM 39.4853 -85.0628 179° South 443 510 31,000  Level Indianapolis Center
12:37PM 39.3603 -85.0611 179° South 447 514 31,000  Level Indianapolis Center
12:38PM 39.2353 -85.0575 179° South 448 516 31,000  Level Indianapolis Center
12:39PM 39.1097 -85.0556 179° South 449 517 31,000  Level Indianapolis Center
12:40PM 38.9836 -85.0522 179° South 451 519 31,000  Level Indianapolis Center
12:41PM 38.8575 -85.0497 179° South 452 520 31,000  Level Indianapolis Center
12:42PM 38.7317 -85.0467 179° South 452 520 31,000  Level Indianapolis Center
12:43PM 38.5908 -85.0436 179° South 451 519 31,000  Level Indianapolis Center
12:44PM 38.4653 -85.0406 179° South 450 518 31,000  Level Indianapolis Center
12:45PM 38.3392 -85.0372 179° South 451 519 31,000  Level Indianapolis Center
12:46PM 38.2103 -85.0361 180° South 458 527 31,000  Level Indianapolis Center
12:47PM 38.0631 -85.0317 179° South 454 522 31,000  Level Indianapolis Center
12:48PM 37.9361 -85.0289 179° South 454 522 31,000  Level Indianapolis Center
12:49PM 37.8097 -85.0258 179° South 455 524 31,000  Level Indianapolis Center
12:50PM 37.6853 -85.0239 179° South 448 516 31,000  Level Indianapolis Center
12:51PM 37.5569 -85.0222 179° South 457 526 31,000  Level Indianapolis Center
12:52PM 37.4311 -85.0186 179° South 452 520 31,000 60 Level Indianapolis Center
12:54PM 37.2831 -84.9997 174° South 457 526 31,200 840 Climbing Indianapolis Center
12:55PM 37.1556 -84.9800 173° South 461 531 32,800 840 Climbing Indianapolis Center
12:56PM 37.0306 -84.9592 172° South 461 531 33,000 60 Climbing Indianapolis Center
12:57PM 36.9056 -84.9397 173° South 453 521 33,000  Level Indianapolis Center
12:58PM 36.7786 -84.9178 172° South 459 528 33,000  Level Indianapolis Center
12:59PM 36.6522 -84.8994 173° South 456 525 33,000  Level Indianapolis Center
01:00PM 36.4997 -84.8747 173° South 459 528 33,000  Level Indianapolis Center
01:01PM 36.3725 -84.8550 173° South 460 529 33,000  Level Indianapolis Center
01:02PM 36.2453 -84.8342 172° South 460 529 33,000  Level Indianapolis Center
01:03PM 36.1192 -84.8144 173° South 455 524 33,000  Level Indianapolis Center
01:03PM 36.0914 -84.8122 176° South 463 533 33,000  Level Atlanta Center
01:04PM 35.9706 -84.7881 171° South 458 527 33,000  Level Atlanta Center
01:05PM 35.8247 -84.7661 173° South 468 539 33,000  Level Atlanta Center
01:06PM 35.6975 -84.7497 174° South 468 539 33,000  Level Atlanta Center
01:07PM 35.5725 -84.7306 173° South 461 531 33,000  Level Atlanta Center
01:08PM 35.4472 -84.7117 173° South 461 531 33,000  Level Atlanta Center
01:09PM 35.3222 -84.6931 173° South 461 531 33,000  Level Atlanta Center
01:10PM 35.1950 -84.6742 173° South 461 531 33,000  Level Atlanta Center
01:11PM 35.0700 -84.6556 173° South 461 531 33,000  Level Atlanta Center
01:12PM 34.9450 -84.6342 172° South 461 531 33,000  Level Atlanta Center
01:13PM 34.8197 -84.6156 173° South 461 531 33,000  Level Atlanta Center
01:14PM 34.6925 -84.5972 173° South 461 531 33,000  Level Atlanta Center
01:15PM 34.5675 -84.5761 172° South 461 531 33,000  Level Atlanta Center
01:16PM 34.4569 -84.5603 173° South 461 531 33,000  Level Atlanta Center
01:17PM 34.3297 -84.5419 173° South 461 531 33,000  Level Atlanta Center
01:18PM 34.2025 -84.5211 172° South 461 531 33,000  Level Atlanta Center
01:19PM 34.0708 -84.5053 174° South 479 551 33,000  Level Atlanta Center
01:20PM 33.9500 -84.4844 172° South 472 543 33,000  Level Atlanta Center
01:21PM 33.8186 -84.4664 173° South 472 543 33,000  Level Atlanta Center
01:22PM 33.6975 -84.4483 173° South 460 529 33,000  Level Atlanta Center
01:23PM 33.5578 -84.4078 166° South 460 529 33,000  Level Atlanta Center
01:24PM 33.4494 -84.3650 162° South 465 535 33,000  Level Atlanta Center
01:25PM 33.3306 -84.3147 161° South 460 529 33,000  Level Atlanta Center
01:26PM 33.2117 -84.2672 162° South 460 529 33,000  Level Atlanta Center
01:27PM 33.0908 -84.2172 161° South 460 529 33,000  Level Atlanta Center
01:28PM 32.9614 -84.1600 160° South 454 522 33,000  Level Atlanta Center
01:29PM 32.8383 -84.1081 160° South 454 522 33,000  Level Atlanta Center
01:30PM 32.7172 -84.0586 161° South 454 522 33,000  Level Atlanta Center
01:31PM 32.5961 -84.0092 161° South 454 522 33,000  Level Atlanta Center
01:32PM 32.4772 -83.9600 161° South 460 529 33,000  Level Atlanta Center
01:33PM 32.3561 -83.9111 161° South 460 529 33,000  Level Atlanta Center
01:34PM 32.2392 -83.8619 160° South 460 529 33,000  Level Atlanta Center
01:35PM 32.1158 -83.8133 162° South 460 529 33,000  Level Atlanta Center
01:36PM 32.0194 -83.7722 160° South 461 531 33,000  Level Jacksonville Center
01:37PM 31.9028 -83.7247 161° South 461 531 33,000 -60 Level Jacksonville Center
01:38PM 31.7800 -83.6747 161° South 461 531 32,900  Descending Jacksonville Center
01:39PM 31.6592 -83.6272 161° South 466 536 33,000  Climbing Jacksonville Center
01:40PM 31.5489 -83.5703 156° South 469 540 33,000  Level Jacksonville Center
01:41PM 31.4406 -83.4964 150° Southeast 457 526 33,000  Level Jacksonville Center
01:42PM 31.3344 -83.4181 148° Southeast 452 520 33,000  Level Jacksonville Center
01:43PM 31.2261 -83.3397 148° Southeast 452 520 33,000  Level Jacksonville Center
01:44PM 31.1178 -83.2614 148° Southeast 452 520 33,000  Level Jacksonville Center
01:45PM 31.0094 -83.1833 148° Southeast 457 526 33,000 -360 Level Jacksonville Center
01:46PM 30.8989 -83.1056 149° Southeast 457 526 32,300 -1,860 Descending Jacksonville Center
01:47PM 30.7842 -83.0208 148° Southeast 457 526 29,300 -2,700 Descending Jacksonville Center
01:48PM 30.6694 -82.9458 151° Southeast 451 519 26,900 -1,200 Descending Jacksonville Center
01:49PM 30.5631 -82.8708 149° Southeast 457 526 27,000  Climbing Jacksonville Center
01:50PM 30.4586 -82.7914 147° Southeast 452 520 26,900 -180 Descending Jacksonville Center
01:51PM 30.3478 -82.7144 149° Southeast 452 520 26,700 -540 Descending Jacksonville Center
01:52PM 30.2433 -82.6400 148° Southeast 447 514 25,900 -900 Descending Jacksonville Center
01:53PM 30.1344 -82.5683 150° Southeast 452 520 25,000 -480 Descending Jacksonville Center
01:54PM 30.0300 -82.4944 149° Southeast 447 514 25,000 -60 Level Jacksonville Center
01:55PM 29.9211 -82.4350 155° Southeast 442 509 24,900 -420 Descending Jacksonville Center
01:56PM 29.8061 -82.3828 158° South 442 509 24,200 -900 Descending Jacksonville Center
01:57PM 29.6975 -82.3258 156° South 437 503 23,200 -1,020 Descending Jacksonville Center
01:58PM 29.5886 -82.2739 157° South 432 497 22,200 -1,020 Descending Jacksonville Center
01:59PM 29.4819 -82.2222 157° South 426 490 21,200 -1,020 Descending Jacksonville Center
02:00PM 29.3750 -82.1728 158° South 420 483 20,200 -1,200 Descending Jacksonville Center
02:01PM 29.2725 -82.1236 157° South 414 476 18,800 -1,860 Descending Jacksonville Center
02:02PM 29.1742 -82.0744 156° South 402 463 16,500 -2,280 Descending Jacksonville Center
02:03PM 29.0778 -82.0253 156° South 391 450 14,300 -2,220 Descending Jacksonville Center
02:04PM 28.9836 -81.9836 159° South 379 436 12,100 -1,560 Descending Jacksonville Center
02:05PM 28.9061 -81.9439 156° South 361 415 11,200 -900 Descending Jacksonville Center
02:06PM 28.8556 -81.8733 129° Southeast 306 352 10,300 -1,140 Descending Jacksonville Center
02:07PM 28.8256 -81.7811 110° East 294 338 9,000 -720 Descending Jacksonville Center
02:08PM 28.8000 -81.7000 110° East 270 311 9,000  Level Orlando TRACON
02:09PM 28.7833 -81.6333 106° East 237 273 9,000 -540 Level Orlando TRACON
02:10PM 28.7333 -81.5500 124° Southeast 244 281 8,000 -1,080 Descending Orlando TRACON
02:11PM 28.7167 -81.5000 111° Southeast 245 282 6,900 -540 Descending Orlando TRACON
02:12PM 28.7333 -81.4167 77° East 242 278 7,000 -720 Climbing Orlando TRACON
02:13PM 28.7333 -81.3500 90° East 241 277 5,500 -1,200 Descending Orlando TRACON
02:14PM 28.7333 -81.2833 90° East 199 229 4,700 -960 Descending Orlando TRACON
02:15PM 28.6833 -81.2833 180° South 195 224 3,600 -960 Descending Orlando TRACON
02:16PM 28.6333 -81.2833 180° South 183 211 2,900 -480 Descending Orlando TRACON
02:17PM 28.5833 -81.2833 180° South 177 204 2,800 -540 Descending Orlando TRACON
02:18PM 28.5333 -81.2833 180° South 171 197 1,800 -840 Descending Orlando TRACON
02:19PM 28.5000 -81.2833 180° South 134 154 1,100 -720 Descending Orlando TRACON
02:21PM 28.4294 -81.3090 184° South  Level Estimated
02:28PM 28.4294 -81.3090 184° South  Level Estimated
02:29PM 28.4294 -81.3090 184° South  Level Estimated
02:30PM 28.4294 -81.3090 184° South  Level Estimated
02:31PM 28.4294 -81.3090 184° South  Level Estimated